sensor_id;sensor_type;location;lat;lon;timestamp;P1;durP1;ratioP1;P2;durP2;ratioP2
13356;SDS011;6747;56.456;-3.120;2024-03-29T00:00:07;7.85;;;2.25;;
13356;SDS011;6747;56.456;-3.120;2024-03-29T00:02:35;10.93;;;2.95;;
13356;SDS011;6747;56.456;-3.120;2024-03-29T00:05:01;6.97;;;2.47;;
13356;SDS011;6747;56.456;-3.120;2024-03-29T00:07:28;15.73;;;2.90;;
13356;SDS011;6747;56.456;-3.120;2024-03-29T00:09:54;10.52;;;2.63;;
13356;SDS011;6747;56.456;-3.120;2024-03-29T00:12:21;10.05;;;2.80;;
13356;SDS011;6747;56.456;-3.120;2024-03-29T00:14:48;7.72;;;2.20;;
13356;SDS011;6747;56.456;-3.120;2024-03-29T00:17:14;7.10;;;2.35;;
13356;SDS011;6747;56.456;-3.120;2024-03-29T00:19:42;8.45;;;2.72;;
13356;SDS011;6747;56.456;-3.120;2024-03-29T00:22:09;11.88;;;2.60;;
13356;SDS011;6747;56.456;-3.120;2024-03-29T00:24:35;11.25;;;2.35;;
13356;SDS011;6747;56.456;-3.120;2024-03-29T00:27:01;10.27;;;2.47;;
13356;SDS011;6747;56.456;-3.120;2024-03-29T00:29:28;9.88;;;2.38;;
13356;SDS011;6747;56.456;-3.120;2024-03-29T00:31:54;10.30;;;2.95;;
13356;SDS011;6747;56.456;-3.120;2024-03-29T00:34:21;9.65;;;2.42;;
13356;SDS011;6747;56.456;-3.120;2024-03-29T00:36:49;8.48;;;2.17;;
13356;SDS011;6747;56.456;-3.120;2024-03-29T00:39:15;6.38;;;2.42;;
13356;SDS011;6747;56.456;-3.120;2024-03-29T00:41:42;10.75;;;2.90;;
13356;SDS011;6747;56.456;-3.120;2024-03-29T00:44:08;10.95;;;2.58;;
13356;SDS011;6747;56.456;-3.120;2024-03-29T00:46:35;14.43;;;2.47;;
13356;SDS011;6747;56.456;-3.120;2024-03-29T00:49:01;8.07;;;2.00;;
13356;SDS011;6747;56.456;-3.120;2024-03-29T00:51:27;6.32;;;1.92;;
13356;SDS011;6747;56.456;-3.120;2024-03-29T00:53:55;9.07;;;2.28;;
13356;SDS011;6747;56.456;-3.120;2024-03-29T00:56:22;11.70;;;2.67;;
13356;SDS011;6747;56.456;-3.120;2024-03-29T00:58:48;14.10;;;2.83;;
13356;SDS011;6747;56.456;-3.120;2024-03-29T01:01:15;6.47;;;2.05;;
13356;SDS011;6747;56.456;-3.120;2024-03-29T01:03:41;9.00;;;2.45;;
13356;SDS011;6747;56.456;-3.120;2024-03-29T01:06:08;9.93;;;2.30;;
13356;SDS011;6747;56.456;-3.120;2024-03-29T01:08:34;8.80;;;2.42;;
13356;SDS011;6747;56.456;-3.120;2024-03-29T01:11:02;8.48;;;2.60;;
13356;SDS011;6747;56.456;-3.120;2024-03-29T01:13:29;5.25;;;1.88;;
13356;SDS011;6747;56.456;-3.120;2024-03-29T01:15:55;6.30;;;1.80;;
13356;SDS011;6747;56.456;-3.120;2024-03-29T01:18:22;8.13;;;2.42;;
13356;SDS011;6747;56.456;-3.120;2024-03-29T01:20:48;9.20;;;2.30;;
13356;SDS011;6747;56.456;-3.120;2024-03-29T01:23:15;5.60;;;2.05;;
13356;SDS011;6747;56.456;-3.120;2024-03-29T01:25:41;6.90;;;2.63;;
13356;SDS011;6747;56.456;-3.120;2024-03-29T01:28:09;4.38;;;2.15;;
13356;SDS011;6747;56.456;-3.120;2024-03-29T01:30:36;6.45;;;2.42;;
13356;SDS011;6747;56.456;-3.120;2024-03-29T01:33:02;6.53;;;1.98;;
13356;SDS011;6747;56.456;-3.120;2024-03-29T01:35:29;10.93;;;2.20;;
13356;SDS011;6747;56.456;-3.120;2024-03-29T01:37:55;7.55;;;1.92;;
13356;SDS011;6747;56.456;-3.120;2024-03-29T01:40:22;6.90;;;2.22;;
13356;SDS011;6747;56.456;-3.120;2024-03-29T01:42:48;5.40;;;1.85;;
13356;SDS011;6747;56.456;-3.120;2024-03-29T01:45:16;4.90;;;1.95;;
13356;SDS011;6747;56.456;-3.120;2024-03-29T01:47:44;12.27;;;3.10;;
13356;SDS011;6747;56.456;-3.120;2024-03-29T01:50:11;4.80;;;2.00;;
13356;SDS011;6747;56.456;-3.120;2024-03-29T01:52:39;6.28;;;2.28;;
13356;SDS011;6747;56.456;-3.120;2024-03-29T01:55:07;7.75;;;2.28;;
13356;SDS011;6747;56.456;-3.120;2024-03-29T01:57:35;7.25;;;2.20;;
13356;SDS011;6747;56.456;-3.120;2024-03-29T02:00:03;8.43;;;2.03;;
13356;SDS011;6747;56.456;-3.120;2024-03-29T02:02:32;4.85;;;1.60;;
13356;SDS011;6747;56.456;-3.120;2024-03-29T02:05:00;4.93;;;1.58;;
13356;SDS011;6747;56.456;-3.120;2024-03-29T02:07:29;5.20;;;1.85;;
13356;SDS011;6747;56.456;-3.120;2024-03-29T02:09:57;3.97;;;1.75;;
13356;SDS011;6747;56.456;-3.120;2024-03-29T02:12:25;5.80;;;2.20;;
13356;SDS011;6747;56.456;-3.120;2024-03-29T02:14:52;7.35;;;2.10;;
13356;SDS011;6747;56.456;-3.120;2024-03-29T02:17:20;4.43;;;1.70;;
13356;SDS011;6747;56.456;-3.120;2024-03-29T02:19:49;4.18;;;1.80;;
13356;SDS011;6747;56.456;-3.120;2024-03-29T02:22:17;7.88;;;2.20;;
13356;SDS011;6747;56.456;-3.120;2024-03-29T02:24:46;5.18;;;1.83;;
13356;SDS011;6747;56.456;-3.120;2024-03-29T02:27:13;3.72;;;1.98;;
13356;SDS011;6747;56.456;-3.120;2024-03-29T02:29:41;4.32;;;1.83;;
13356;SDS011;6747;56.456;-3.120;2024-03-29T02:32:09;7.15;;;2.20;;
13356;SDS011;6747;56.456;-3.120;2024-03-29T02:34:36;2.58;;;1.52;;
13356;SDS011;6747;56.456;-3.120;2024-03-29T02:37:03;5.28;;;2.70;;
13356;SDS011;6747;56.456;-3.120;2024-03-29T02:39:31;3.88;;;1.73;;
13356;SDS011;6747;56.456;-3.120;2024-03-29T02:42:00;5.43;;;2.03;;
13356;SDS011;6747;56.456;-3.120;2024-03-29T02:44:27;6.25;;;2.28;;
13356;SDS011;6747;56.456;-3.120;2024-03-29T02:46:55;6.28;;;2.28;;
13356;SDS011;6747;56.456;-3.120;2024-03-29T02:49:22;4.13;;;1.73;;
13356;SDS011;6747;56.456;-3.120;2024-03-29T02:51:49;3.13;;;2.00;;
13356;SDS011;6747;56.456;-3.120;2024-03-29T02:54:18;4.15;;;2.00;;
13356;SDS011;6747;56.456;-3.120;2024-03-29T02:56:44;6.15;;;2.17;;
13356;SDS011;6747;56.456;-3.120;2024-03-29T02:59:13;5.72;;;2.10;;
13356;SDS011;6747;56.456;-3.120;2024-03-29T03:01:40;7.38;;;1.98;;
13356;SDS011;6747;56.456;-3.120;2024-03-29T03:04:07;6.00;;;2.10;;
13356;SDS011;6747;56.456;-3.120;2024-03-29T03:06:34;6.43;;;2.05;;
13356;SDS011;6747;56.456;-3.120;2024-03-29T03:09:01;6.15;;;2.00;;
13356;SDS011;6747;56.456;-3.120;2024-03-29T03:11:46;4.90;;;2.10;;
13356;SDS011;6747;56.456;-3.120;2024-03-29T03:14:15;4.40;;;1.85;;
13356;SDS011;6747;56.456;-3.120;2024-03-29T03:16:43;4.18;;;1.90;;
13356;SDS011;6747;56.456;-3.120;2024-03-29T03:19:09;4.35;;;1.80;;
13356;SDS011;6747;56.456;-3.120;2024-03-29T03:21:36;2.78;;;2.13;;
13356;SDS011;6747;56.456;-3.120;2024-03-29T03:24:03;3.63;;;1.73;;
13356;SDS011;6747;56.456;-3.120;2024-03-29T03:26:31;4.88;;;2.40;;
13356;SDS011;6747;56.456;-3.120;2024-03-29T03:28:57;3.85;;;1.75;;
13356;SDS011;6747;56.456;-3.120;2024-03-29T03:31:26;3.42;;;1.92;;
13356;SDS011;6747;56.456;-3.120;2024-03-29T03:33:52;3.65;;;1.98;;
13356;SDS011;6747;56.456;-3.120;2024-03-29T03:36:20;2.50;;;1.80;;
13356;SDS011;6747;56.456;-3.120;2024-03-29T03:38:46;5.25;;;1.75;;
13356;SDS011;6747;56.456;-3.120;2024-03-29T03:41:14;4.03;;;2.22;;
13356;SDS011;6747;56.456;-3.120;2024-03-29T03:43:40;4.03;;;2.15;;
13356;SDS011;6747;56.456;-3.120;2024-03-29T03:46:08;4.70;;;2.17;;
13356;SDS011;6747;56.456;-3.120;2024-03-29T03:48:36;3.75;;;2.30;;
13356;SDS011;6747;56.456;-3.120;2024-03-29T03:51:04;4.90;;;2.20;;
13356;SDS011;6747;56.456;-3.120;2024-03-29T03:53:31;2.00;;;1.85;;
13356;SDS011;6747;56.456;-3.120;2024-03-29T03:55:59;4.28;;;2.05;;
13356;SDS011;6747;56.456;-3.120;2024-03-29T03:58:25;5.60;;;2.22;;
13356;SDS011;6747;56.456;-3.120;2024-03-29T04:00:53;6.22;;;1.90;;
13356;SDS011;6747;56.456;-3.120;2024-03-29T04:03:19;4.50;;;1.90;;
13356;SDS011;6747;56.456;-3.120;2024-03-29T04:05:48;3.45;;;1.90;;
13356;SDS011;6747;56.456;-3.120;2024-03-29T04:08:14;4.75;;;1.63;;
13356;SDS011;6747;56.456;-3.120;2024-03-29T04:10:44;4.20;;;2.15;;
13356;SDS011;6747;56.456;-3.120;2024-03-29T04:13:10;4.28;;;1.90;;
13356;SDS011;6747;56.456;-3.120;2024-03-29T04:15:38;5.50;;;1.88;;
13356;SDS011;6747;56.456;-3.120;2024-03-29T04:18:04;5.40;;;2.10;;
13356;SDS011;6747;56.456;-3.120;2024-03-29T04:20:32;3.45;;;2.08;;
13356;SDS011;6747;56.456;-3.120;2024-03-29T04:23:00;4.65;;;1.83;;
13356;SDS011;6747;56.456;-3.120;2024-03-29T04:25:27;3.80;;;2.00;;
13356;SDS011;6747;56.456;-3.120;2024-03-29T04:27:54;5.20;;;1.80;;
13356;SDS011;6747;56.456;-3.120;2024-03-29T04:30:21;5.10;;;2.08;;
13356;SDS011;6747;56.456;-3.120;2024-03-29T04:32:47;5.15;;;2.22;;
13356;SDS011;6747;56.456;-3.120;2024-03-29T04:35:15;3.88;;;2.30;;
13356;SDS011;6747;56.456;-3.120;2024-03-29T04:37:41;4.47;;;2.00;;
13356;SDS011;6747;56.456;-3.120;2024-03-29T04:40:11;5.85;;;2.15;;
13356;SDS011;6747;56.456;-3.120;2024-03-29T04:42:38;4.90;;;2.45;;
13356;SDS011;6747;56.456;-3.120;2024-03-29T04:45:06;3.42;;;1.85;;
13356;SDS011;6747;56.456;-3.120;2024-03-29T04:47:33;3.42;;;2.03;;
13356;SDS011;6747;56.456;-3.120;2024-03-29T04:50:01;3.20;;;2.03;;
13356;SDS011;6747;56.456;-3.120;2024-03-29T04:52:29;4.20;;;2.00;;
13356;SDS011;6747;56.456;-3.120;2024-03-29T04:54:56;5.10;;;2.50;;
13356;SDS011;6747;56.456;-3.120;2024-03-29T04:57:25;4.53;;;1.85;;
13356;SDS011;6747;56.456;-3.120;2024-03-29T04:59:52;5.28;;;2.50;;
13356;SDS011;6747;56.456;-3.120;2024-03-29T05:02:20;4.28;;;2.00;;
13356;SDS011;6747;56.456;-3.120;2024-03-29T05:04:47;3.15;;;1.88;;
13356;SDS011;6747;56.456;-3.120;2024-03-29T05:07:15;3.63;;;2.00;;
13356;SDS011;6747;56.456;-3.120;2024-03-29T05:09:42;4.18;;;2.38;;
13356;SDS011;6747;56.456;-3.120;2024-03-29T05:12:09;4.68;;;2.15;;
13356;SDS011;6747;56.456;-3.120;2024-03-29T05:14:38;5.75;;;2.55;;
13356;SDS011;6747;56.456;-3.120;2024-03-29T05:17:06;2.70;;;2.00;;
13356;SDS011;6747;56.456;-3.120;2024-03-29T05:19:33;3.22;;;2.00;;
13356;SDS011;6747;56.456;-3.120;2024-03-29T05:22:01;2.25;;;2.03;;
13356;SDS011;6747;56.456;-3.120;2024-03-29T05:24:28;5.78;;;2.08;;
13356;SDS011;6747;56.456;-3.120;2024-03-29T05:26:55;6.10;;;2.30;;
13356;SDS011;6747;56.456;-3.120;2024-03-29T05:29:23;2.03;;;1.83;;
13356;SDS011;6747;56.456;-3.120;2024-03-29T05:31:52;3.70;;;1.92;;
13356;SDS011;6747;56.456;-3.120;2024-03-29T05:34:19;4.18;;;1.80;;
13356;SDS011;6747;56.456;-3.120;2024-03-29T05:36:47;2.88;;;1.92;;
13356;SDS011;6747;56.456;-3.120;2024-03-29T05:39:15;3.30;;;2.00;;
13356;SDS011;6747;56.456;-3.120;2024-03-29T05:41:44;3.00;;;1.73;;
13356;SDS011;6747;56.456;-3.120;2024-03-29T05:44:11;3.58;;;2.15;;
13356;SDS011;6747;56.456;-3.120;2024-03-29T05:46:38;5.78;;;2.20;;
13356;SDS011;6747;56.456;-3.120;2024-03-29T05:49:08;4.30;;;1.95;;
13356;SDS011;6747;56.456;-3.120;2024-03-29T05:51:35;2.33;;;1.70;;
13356;SDS011;6747;56.456;-3.120;2024-03-29T05:54:03;2.28;;;1.80;;
13356;SDS011;6747;56.456;-3.120;2024-03-29T05:56:30;2.70;;;1.50;;
13356;SDS011;6747;56.456;-3.120;2024-03-29T05:58:58;1.92;;;1.67;;
13356;SDS011;6747;56.456;-3.120;2024-03-29T06:01:25;2.08;;;1.60;;
13356;SDS011;6747;56.456;-3.120;2024-03-29T06:03:52;4.00;;;1.50;;
13356;SDS011;6747;56.456;-3.120;2024-03-29T06:06:23;4.43;;;1.80;;
13356;SDS011;6747;56.456;-3.120;2024-03-29T06:08:50;2.03;;;1.40;;
13356;SDS011;6747;56.456;-3.120;2024-03-29T06:11:18;6.05;;;2.00;;
13356;SDS011;6747;56.456;-3.120;2024-03-29T06:13:45;2.65;;;1.80;;
13356;SDS011;6747;56.456;-3.120;2024-03-29T06:16:30;3.35;;;1.60;;
13356;SDS011;6747;56.456;-3.120;2024-03-29T06:19:15;2.28;;;1.85;;
13356;SDS011;6747;56.456;-3.120;2024-03-29T06:21:44;2.65;;;1.40;;
13356;SDS011;6747;56.456;-3.120;2024-03-29T06:24:11;3.10;;;1.58;;
13356;SDS011;6747;56.456;-3.120;2024-03-29T06:26:39;4.05;;;1.92;;
13356;SDS011;6747;56.456;-3.120;2024-03-29T06:29:07;4.30;;;1.70;;
13356;SDS011;6747;56.456;-3.120;2024-03-29T06:31:35;2.92;;;1.90;;
13356;SDS011;6747;56.456;-3.120;2024-03-29T06:34:03;4.82;;;1.63;;
13356;SDS011;6747;56.456;-3.120;2024-03-29T06:36:30;2.90;;;1.90;;
13356;SDS011;6747;56.456;-3.120;2024-03-29T06:39:02;3.28;;;1.60;;
13356;SDS011;6747;56.456;-3.120;2024-03-29T06:41:30;4.50;;;1.92;;
13356;SDS011;6747;56.456;-3.120;2024-03-29T06:43:57;2.88;;;1.77;;
13356;SDS011;6747;56.456;-3.120;2024-03-29T06:46:25;3.60;;;1.92;;
13356;SDS011;6747;56.456;-3.120;2024-03-29T06:48:52;3.97;;;1.88;;
13356;SDS011;6747;56.456;-3.120;2024-03-29T06:51:20;3.63;;;2.00;;
13356;SDS011;6747;56.456;-3.120;2024-03-29T06:53:47;2.50;;;1.48;;
13356;SDS011;6747;56.456;-3.120;2024-03-29T06:56:16;3.70;;;1.88;;
13356;SDS011;6747;56.456;-3.120;2024-03-29T06:58:44;2.63;;;1.92;;
13356;SDS011;6747;56.456;-3.120;2024-03-29T07:01:11;2.80;;;2.00;;
13356;SDS011;6747;56.456;-3.120;2024-03-29T07:03:38;3.15;;;1.67;;
13356;SDS011;6747;56.456;-3.120;2024-03-29T07:06:05;2.58;;;1.92;;
13356;SDS011;6747;56.456;-3.120;2024-03-29T07:08:33;2.85;;;1.55;;
13356;SDS011;6747;56.456;-3.120;2024-03-29T07:11:01;1.70;;;1.60;;
13356;SDS011;6747;56.456;-3.120;2024-03-29T07:13:30;1.58;;;1.48;;
13356;SDS011;6747;56.456;-3.120;2024-03-29T07:15:58;2.20;;;1.70;;
13356;SDS011;6747;56.456;-3.120;2024-03-29T07:18:25;1.55;;;1.30;;
13356;SDS011;6747;56.456;-3.120;2024-03-29T07:20:53;1.80;;;1.38;;
13356;SDS011;6747;56.456;-3.120;2024-03-29T07:23:21;1.40;;;1.30;;
13356;SDS011;6747;56.456;-3.120;2024-03-29T07:25:57;1.88;;;1.50;;
13356;SDS011;6747;56.456;-3.120;2024-03-29T07:28:24;1.95;;;1.38;;
13356;SDS011;6747;56.456;-3.120;2024-03-29T07:30:53;3.65;;;1.52;;
13356;SDS011;6747;56.456;-3.120;2024-03-29T07:33:22;1.52;;;1.40;;
13356;SDS011;6747;56.456;-3.120;2024-03-29T07:35:51;1.95;;;1.20;;
13356;SDS011;6747;56.456;-3.120;2024-03-29T07:38:19;1.75;;;1.50;;
13356;SDS011;6747;56.456;-3.120;2024-03-29T07:40:46;2.13;;;1.40;;
13356;SDS011;6747;56.456;-3.120;2024-03-29T07:43:14;1.60;;;1.30;;
13356;SDS011;6747;56.456;-3.120;2024-03-29T07:45:41;1.40;;;1.30;;
13356;SDS011;6747;56.456;-3.120;2024-03-29T07:48:11;1.90;;;1.30;;
13356;SDS011;6747;56.456;-3.120;2024-03-29T07:50:39;2.65;;;1.42;;
13356;SDS011;6747;56.456;-3.120;2024-03-29T07:53:06;3.60;;;1.40;;
13356;SDS011;6747;56.456;-3.120;2024-03-29T07:55:35;3.40;;;1.40;;
13356;SDS011;6747;56.456;-3.120;2024-03-29T07:58:02;1.55;;;1.35;;
13356;SDS011;6747;56.456;-3.120;2024-03-29T08:00:30;2.13;;;1.52;;
13356;SDS011;6747;56.456;-3.120;2024-03-29T08:02:58;2.03;;;1.40;;
13356;SDS011;6747;56.456;-3.120;2024-03-29T08:05:27;2.65;;;1.42;;
13356;SDS011;6747;56.456;-3.120;2024-03-29T08:07:55;1.95;;;1.40;;
13356;SDS011;6747;56.456;-3.120;2024-03-29T08:10:22;1.73;;;1.20;;
13356;SDS011;6747;56.456;-3.120;2024-03-29T08:12:50;2.88;;;1.40;;
13356;SDS011;6747;56.456;-3.120;2024-03-29T08:15:17;2.22;;;1.20;;
13356;SDS011;6747;56.456;-3.120;2024-03-29T08:17:45;1.10;;;1.10;;
13356;SDS011;6747;56.456;-3.120;2024-03-29T08:20:13;1.42;;;1.33;;
13356;SDS011;6747;56.456;-3.120;2024-03-29T08:22:42;1.23;;;1.08;;
13356;SDS011;6747;56.456;-3.120;2024-03-29T08:25:09;3.50;;;1.50;;
13356;SDS011;6747;56.456;-3.120;2024-03-29T08:27:36;2.60;;;1.17;;
13356;SDS011;6747;56.456;-3.120;2024-03-29T08:30:04;1.98;;;1.35;;
13356;SDS011;6747;56.456;-3.120;2024-03-29T08:32:32;2.65;;;1.60;;
13356;SDS011;6747;56.456;-3.120;2024-03-29T08:34:59;1.33;;;1.23;;
13356;SDS011;6747;56.456;-3.120;2024-03-29T08:37:27;1.50;;;1.40;;
13356;SDS011;6747;56.456;-3.120;2024-03-29T08:39:57;2.10;;;1.70;;
13356;SDS011;6747;56.456;-3.120;2024-03-29T08:42:24;1.40;;;1.30;;
13356;SDS011;6747;56.456;-3.120;2024-03-29T08:44:52;3.17;;;1.40;;
13356;SDS011;6747;56.456;-3.120;2024-03-29T08:47:20;4.32;;;1.85;;
13356;SDS011;6747;56.456;-3.120;2024-03-29T08:49:47;2.28;;;1.38;;
13356;SDS011;6747;56.456;-3.120;2024-03-29T08:52:15;4.53;;;1.77;;
13356;SDS011;6747;56.456;-3.120;2024-03-29T08:54:43;3.30;;;1.45;;
13356;SDS011;6747;56.456;-3.120;2024-03-29T08:57:12;1.90;;;1.50;;
13356;SDS011;6747;56.456;-3.120;2024-03-29T08:59:39;2.60;;;1.90;;
13356;SDS011;6747;56.456;-3.120;2024-03-29T09:02:07;2.80;;;1.40;;
13356;SDS011;6747;56.456;-3.120;2024-03-29T09:04:34;1.52;;;1.35;;
13356;SDS011;6747;56.456;-3.120;2024-03-29T09:07:02;1.58;;;1.45;;
13356;SDS011;6747;56.456;-3.120;2024-03-29T09:09:31;3.03;;;1.80;;
13356;SDS011;6747;56.456;-3.120;2024-03-29T09:11:58;2.70;;;1.60;;
13356;SDS011;6747;56.456;-3.120;2024-03-29T09:14:27;2.88;;;1.70;;
13356;SDS011;6747;56.456;-3.120;2024-03-29T09:16:55;1.67;;;1.58;;
13356;SDS011;6747;56.456;-3.120;2024-03-29T09:19:22;1.48;;;1.30;;
13356;SDS011;6747;56.456;-3.120;2024-03-29T09:21:50;2.85;;;1.50;;
13356;SDS011;6747;56.456;-3.120;2024-03-29T09:24:17;2.00;;;1.48;;
13356;SDS011;6747;56.456;-3.120;2024-03-29T09:26:48;2.78;;;1.50;;
13356;SDS011;6747;56.456;-3.120;2024-03-29T09:29:16;2.55;;;1.50;;
13356;SDS011;6747;56.456;-3.120;2024-03-29T09:31:47;2.60;;;1.50;;
13356;SDS011;6747;56.456;-3.120;2024-03-29T09:34:14;1.52;;;1.38;;
13356;SDS011;6747;56.456;-3.120;2024-03-29T09:36:42;2.22;;;1.98;;
13356;SDS011;6747;56.456;-3.120;2024-03-29T09:39:09;2.40;;;1.83;;
13356;SDS011;6747;56.456;-3.120;2024-03-29T09:41:36;1.63;;;1.30;;
13356;SDS011;6747;56.456;-3.120;2024-03-29T09:44:06;1.95;;;1.58;;
13356;SDS011;6747;56.456;-3.120;2024-03-29T09:46:34;1.95;;;1.70;;
13356;SDS011;6747;56.456;-3.120;2024-03-29T09:49:06;2.58;;;1.83;;
13356;SDS011;6747;56.456;-3.120;2024-03-29T09:51:34;3.15;;;1.73;;
13356;SDS011;6747;56.456;-3.120;2024-03-29T09:54:02;3.33;;;1.50;;
13356;SDS011;6747;56.456;-3.120;2024-03-29T09:56:33;1.92;;;1.23;;
13356;SDS011;6747;56.456;-3.120;2024-03-29T09:59:00;3.33;;;1.80;;
13356;SDS011;6747;56.456;-3.120;2024-03-29T10:01:29;1.75;;;1.50;;
13356;SDS011;6747;56.456;-3.120;2024-03-29T10:03:58;3.05;;;1.95;;
13356;SDS011;6747;56.456;-3.120;2024-03-29T10:06:28;3.08;;;2.00;;
13356;SDS011;6747;56.456;-3.120;2024-03-29T10:08:56;2.20;;;1.40;;
13356;SDS011;6747;56.456;-3.120;2024-03-29T10:11:24;2.63;;;1.40;;
13356;SDS011;6747;56.456;-3.120;2024-03-29T10:13:51;3.78;;;1.05;;
13356;SDS011;6747;56.456;-3.120;2024-03-29T10:16:19;2.25;;;1.63;;
13356;SDS011;6747;56.456;-3.120;2024-03-29T10:18:49;2.03;;;1.35;;
13356;SDS011;6747;56.456;-3.120;2024-03-29T10:21:16;2.60;;;1.40;;
13356;SDS011;6747;56.456;-3.120;2024-03-29T10:23:46;1.33;;;1.23;;
13356;SDS011;6747;56.456;-3.120;2024-03-29T10:26:15;1.27;;;1.23;;
13356;SDS011;6747;56.456;-3.120;2024-03-29T10:28:43;1.17;;;1.00;;
13356;SDS011;6747;56.456;-3.120;2024-03-29T10:31:11;1.50;;;1.40;;
13356;SDS011;6747;56.456;-3.120;2024-03-29T10:33:41;2.55;;;1.67;;
13356;SDS011;6747;56.456;-3.120;2024-03-29T10:36:09;1.20;;;1.20;;
13356;SDS011;6747;56.456;-3.120;2024-03-29T10:38:37;1.35;;;1.25;;
13356;SDS011;6747;56.456;-3.120;2024-03-29T10:41:06;2.10;;;1.08;;
13356;SDS011;6747;56.456;-3.120;2024-03-29T10:43:34;1.20;;;1.08;;
13356;SDS011;6747;56.456;-3.120;2024-03-29T10:46:02;2.08;;;1.30;;
13356;SDS011;6747;56.456;-3.120;2024-03-29T10:48:30;1.98;;;0.85;;
13356;SDS011;6747;56.456;-3.120;2024-03-29T10:50:58;2.05;;;1.33;;
13356;SDS011;6747;56.456;-3.120;2024-03-29T10:53:26;1.10;;;0.80;;
13356;SDS011;6747;56.456;-3.120;2024-03-29T10:55:54;2.33;;;1.13;;
13356;SDS011;6747;56.456;-3.120;2024-03-29T10:58:28;2.33;;;1.30;;
13356;SDS011;6747;56.456;-3.120;2024-03-29T11:00:57;2.58;;;1.50;;
13356;SDS011;6747;56.456;-3.120;2024-03-29T11:03:26;2.53;;;1.38;;
13356;SDS011;6747;56.456;-3.120;2024-03-29T11:05:58;1.95;;;1.00;;
13356;SDS011;6747;56.456;-3.120;2024-03-29T11:08:28;1.58;;;1.38;;
13356;SDS011;6747;56.456;-3.120;2024-03-29T11:10:59;1.00;;;1.00;;
13356;SDS011;6747;56.456;-3.120;2024-03-29T11:13:31;2.55;;;1.05;;
13356;SDS011;6747;56.456;-3.120;2024-03-29T11:16:00;1.42;;;1.10;;
13356;SDS011;6747;56.456;-3.120;2024-03-29T11:18:28;1.98;;;1.48;;
13356;SDS011;6747;56.456;-3.120;2024-03-29T11:20:56;3.40;;;1.58;;
13356;SDS011;6747;56.456;-3.120;2024-03-29T11:23:25;2.92;;;1.60;;
13356;SDS011;6747;56.456;-3.120;2024-03-29T11:25:54;2.17;;;1.42;;
13356;SDS011;6747;56.456;-3.120;2024-03-29T11:28:23;3.72;;;2.65;;
13356;SDS011;6747;56.456;-3.120;2024-03-29T11:30:53;1.70;;;1.60;;
13356;SDS011;6747;56.456;-3.120;2024-03-29T11:33:25;3.72;;;1.52;;
13356;SDS011;6747;56.456;-3.120;2024-03-29T11:35:53;2.67;;;1.55;;
13356;SDS011;6747;56.456;-3.120;2024-03-29T11:38:20;3.35;;;1.88;;
13356;SDS011;6747;56.456;-3.120;2024-03-29T11:41:00;2.05;;;1.80;;
13356;SDS011;6747;56.456;-3.120;2024-03-29T11:43:28;2.28;;;1.90;;
13356;SDS011;6747;56.456;-3.120;2024-03-29T11:45:57;4.43;;;2.03;;
13356;SDS011;6747;56.456;-3.120;2024-03-29T11:48:26;2.80;;;1.60;;
13356;SDS011;6747;56.456;-3.120;2024-03-29T11:50:54;2.85;;;2.08;;
13356;SDS011;6747;56.456;-3.120;2024-03-29T11:53:21;4.10;;;1.90;;
13356;SDS011;6747;56.456;-3.120;2024-03-29T11:55:49;2.28;;;2.05;;
13356;SDS011;6747;56.456;-3.120;2024-03-29T11:58:19;1.90;;;1.70;;
13356;SDS011;6747;56.456;-3.120;2024-03-29T12:00:47;2.28;;;2.03;;
13356;SDS011;6747;56.456;-3.120;2024-03-29T12:03:17;2.13;;;1.75;;
13356;SDS011;6747;56.456;-3.120;2024-03-29T12:05:46;2.20;;;2.00;;
13356;SDS011;6747;56.456;-3.120;2024-03-29T12:08:14;2.47;;;2.00;;
13356;SDS011;6747;56.456;-3.120;2024-03-29T12:10:45;3.33;;;2.03;;
13356;SDS011;6747;56.456;-3.120;2024-03-29T12:13:15;3.15;;;2.13;;
13356;SDS011;6747;56.456;-3.120;2024-03-29T12:15:43;2.47;;;1.88;;
13356;SDS011;6747;56.456;-3.120;2024-03-29T12:18:11;2.28;;;1.85;;
13356;SDS011;6747;56.456;-3.120;2024-03-29T12:20:42;1.85;;;1.70;;
13356;SDS011;6747;56.456;-3.120;2024-03-29T12:23:15;2.97;;;1.65;;
13356;SDS011;6747;56.456;-3.120;2024-03-29T12:25:42;1.50;;;1.40;;
13356;SDS011;6747;56.456;-3.120;2024-03-29T12:28:10;2.38;;;1.52;;
13356;SDS011;6747;56.456;-3.120;2024-03-29T12:30:38;1.40;;;1.30;;
13356;SDS011;6747;56.456;-3.120;2024-03-29T12:33:08;3.28;;;1.30;;
13356;SDS011;6747;56.456;-3.120;2024-03-29T12:35:35;1.45;;;1.00;;
13356;SDS011;6747;56.456;-3.120;2024-03-29T12:38:05;0.90;;;0.90;;
13356;SDS011;6747;56.456;-3.120;2024-03-29T12:40:33;1.55;;;0.90;;
13356;SDS011;6747;56.456;-3.120;2024-03-29T12:43:03;0.90;;;0.90;;
13356;SDS011;6747;56.456;-3.120;2024-03-29T12:45:31;1.38;;;1.30;;
13356;SDS011;6747;56.456;-3.120;2024-03-29T12:47:58;2.05;;;1.30;;
13356;SDS011;6747;56.456;-3.120;2024-03-29T12:50:26;2.33;;;1.20;;
13356;SDS011;6747;56.456;-3.120;2024-03-29T12:52:54;1.85;;;1.00;;
13356;SDS011;6747;56.456;-3.120;2024-03-29T12:55:23;0.82;;;0.82;;
13356;SDS011;6747;56.456;-3.120;2024-03-29T12:57:53;2.30;;;0.68;;
13356;SDS011;6747;56.456;-3.120;2024-03-29T13:00:25;1.60;;;1.05;;
13356;SDS011;6747;56.456;-3.120;2024-03-29T13:02:53;0.75;;;0.75;;
13356;SDS011;6747;56.456;-3.120;2024-03-29T13:05:21;0.95;;;0.93;;
13356;SDS011;6747;56.456;-3.120;2024-03-29T13:07:49;1.55;;;1.08;;
13356;SDS011;6747;56.456;-3.120;2024-03-29T13:10:16;0.90;;;0.90;;
13356;SDS011;6747;56.456;-3.120;2024-03-29T13:12:47;2.78;;;0.90;;
13356;SDS011;6747;56.456;-3.120;2024-03-29T13:15:16;0.82;;;0.70;;
13356;SDS011;6747;56.456;-3.120;2024-03-29T13:17:44;0.60;;;0.60;;
13356;SDS011;6747;56.456;-3.120;2024-03-29T13:20:12;0.80;;;0.60;;
13356;SDS011;6747;56.456;-3.120;2024-03-29T13:22:40;0.57;;;0.57;;
13356;SDS011;6747;56.456;-3.120;2024-03-29T13:25:10;0.55;;;0.55;;
13356;SDS011;6747;56.456;-3.120;2024-03-29T13:27:37;0.52;;;0.52;;
13356;SDS011;6747;56.456;-3.120;2024-03-29T13:30:08;0.55;;;0.50;;
13356;SDS011;6747;56.456;-3.120;2024-03-29T13:32:35;0.47;;;0.40;;
13356;SDS011;6747;56.456;-3.120;2024-03-29T13:35:03;0.63;;;0.50;;
13356;SDS011;6747;56.456;-3.120;2024-03-29T13:37:31;0.50;;;0.50;;
13356;SDS011;6747;56.456;-3.120;2024-03-29T13:39:59;0.47;;;0.45;;
13356;SDS011;6747;56.456;-3.120;2024-03-29T13:42:29;0.40;;;0.40;;
13356;SDS011;6747;56.456;-3.120;2024-03-29T13:44:56;0.28;;;0.28;;
13356;SDS011;6747;56.456;-3.120;2024-03-29T13:47:25;4.57;;;0.40;;
13356;SDS011;6747;56.456;-3.120;2024-03-29T13:49:53;0.40;;;0.40;;
13356;SDS011;6747;56.456;-3.120;2024-03-29T13:52:22;0.38;;;0.30;;
13356;SDS011;6747;56.456;-3.120;2024-03-29T13:54:49;0.73;;;0.32;;
13356;SDS011;6747;56.456;-3.120;2024-03-29T13:57:17;0.45;;;0.45;;
13356;SDS011;6747;56.456;-3.120;2024-03-29T13:59:44;1.65;;;0.63;;
13356;SDS011;6747;56.456;-3.120;2024-03-29T14:02:12;0.43;;;0.43;;
13356;SDS011;6747;56.456;-3.120;2024-03-29T14:04:42;0.13;;;0.13;;
13356;SDS011;6747;56.456;-3.120;2024-03-29T14:07:10;0.40;;;0.40;;
13356;SDS011;6747;56.456;-3.120;2024-03-29T14:09:38;0.35;;;0.30;;
13356;SDS011;6747;56.456;-3.120;2024-03-29T14:12:06;0.95;;;0.40;;
13356;SDS011;6747;56.456;-3.120;2024-03-29T14:14:34;0.50;;;0.30;;
13356;SDS011;6747;56.456;-3.120;2024-03-29T14:17:02;0.17;;;0.17;;
13356;SDS011;6747;56.456;-3.120;2024-03-29T14:19:31;0.30;;;0.30;;
13356;SDS011;6747;56.456;-3.120;2024-03-29T14:22:00;0.30;;;0.30;;
13356;SDS011;6747;56.456;-3.120;2024-03-29T14:24:28;0.10;;;0.10;;
13356;SDS011;6747;56.456;-3.120;2024-03-29T14:26:56;0.65;;;0.63;;
13356;SDS011;6747;56.456;-3.120;2024-03-29T14:29:24;0.30;;;0.30;;
13356;SDS011;6747;56.456;-3.120;2024-03-29T14:31:51;0.40;;;0.40;;
13356;SDS011;6747;56.456;-3.120;2024-03-29T14:37:18;0.30;;;0.30;;
13356;SDS011;6747;56.456;-3.120;2024-03-29T14:39:45;0.25;;;0.22;;
13356;SDS011;6747;56.456;-3.120;2024-03-29T14:42:13;0.50;;;0.40;;
13356;SDS011;6747;56.456;-3.120;2024-03-29T14:44:47;0.50;;;0.40;;
13356;SDS011;6747;56.456;-3.120;2024-03-29T14:47:20;0.20;;;0.20;;
13356;SDS011;6747;56.456;-3.120;2024-03-29T14:49:48;0.52;;;0.47;;
13356;SDS011;6747;56.456;-3.120;2024-03-29T14:52:16;0.40;;;0.40;;
13356;SDS011;6747;56.456;-3.120;2024-03-29T14:54:45;0.68;;;0.38;;